createdAt,value
2018-07-07T00:01:25.459Z,16.30
2018-07-07T00:03:53.978Z,16.30
2018-07-07T00:06:22.459Z,16.20
2018-07-07T00:08:50.942Z,16.20
2018-07-07T00:11:19.455Z,16.20
2018-07-07T00:13:47.941Z,16.20
2018-07-07T00:16:17.842Z,16.20
2018-07-07T00:18:46.939Z,16.30
2018-07-07T00:31:43.112Z,16.20
2018-07-07T00:34:11.637Z,16.20
2018-07-07T00:36:40.158Z,16.10
2018-07-07T00:39:09.064Z,16.10
2018-07-07T00:41:37.555Z,16.10
2018-07-07T00:44:06.058Z,16.00
2018-07-07T00:46:34.578Z,16.00
2018-07-07T00:51:31.312Z,16.10
2018-07-07T00:53:59.810Z,15.90
2018-07-07T00:56:28.295Z,15.90
2018-07-07T00:58:56.767Z,15.90
2018-07-07T01:01:25.715Z,15.90
2018-07-07T01:03:54.239Z,16.00
2018-07-07T01:06:25.714Z,16.00
2018-07-07T01:08:54.301Z,15.90
2018-07-07T01:11:22.793Z,15.90
2018-07-07T01:13:51.350Z,15.80
2018-07-07T01:16:20.504Z,15.80
2018-07-07T01:18:48.976Z,15.80
2018-07-07T01:21:17.606Z,15.70
2018-07-07T01:23:46.363Z,15.60
2018-07-07T01:31:42.348Z,15.60
2018-07-07T01:34:10.850Z,15.60
2018-07-07T01:36:39.310Z,15.40
2018-07-07T01:39:07.958Z,15.40
2018-07-07T01:41:36.506Z,15.40
2018-07-07T01:44:05.000Z,15.40
2018-07-07T01:46:33.824Z,15.40
2018-07-07T01:49:02.298Z,15.30
2018-07-07T01:53:59.023Z,15.40
2018-07-07T01:56:27.503Z,15.40
2018-07-07T01:58:55.967Z,15.30
2018-07-07T02:01:24.483Z,15.30
2018-07-07T02:03:52.993Z,15.20
2018-07-07T02:06:21.483Z,15.20
2018-07-07T02:08:49.990Z,15.30
2018-07-07T02:11:18.476Z,15.30
2018-07-07T02:13:46.969Z,15.30
2018-07-07T02:22:51.682Z,15.30
2018-07-07T02:25:20.646Z,15.30
2018-07-07T02:27:49.109Z,15.20
2018-07-07T02:30:17.647Z,15.20
2018-07-07T02:32:47.741Z,15.10
2018-07-07T02:42:58.051Z,15.20
2018-07-07T02:45:27.353Z,15.20
2018-07-07T02:47:55.882Z,14.90
2018-07-07T02:50:24.602Z,14.90
2018-07-07T02:52:53.166Z,14.90
2018-07-07T02:55:21.678Z,14.90
2018-07-07T03:00:18.473Z,15.00
2018-07-07T03:02:47.054Z,15.00
2018-07-07T03:13:21.660Z,15.00
2018-07-07T03:15:50.295Z,15.00
2018-07-07T03:18:18.927Z,14.80
2018-07-07T03:20:47.570Z,14.80
2018-07-07T03:25:45.821Z,14.80
2018-07-07T03:28:15.635Z,14.80
2018-07-07T03:30:44.167Z,14.80
2018-07-07T03:33:12.630Z,14.80
2018-07-07T03:35:41.461Z,14.80
2018-07-07T03:38:09.952Z,14.90
2018-07-07T03:40:38.434Z,15.00
2018-07-07T03:43:08.066Z,15.00
2018-07-07T03:45:36.527Z,14.90
2018-07-07T03:48:05.004Z,14.90
2018-07-07T03:50:33.686Z,14.90
2018-07-07T03:53:02.139Z,14.90
2018-07-07T03:55:30.628Z,14.90
2018-07-07T04:00:27.834Z,15.00
2018-07-07T04:02:56.298Z,15.10
2018-07-07T04:05:24.856Z,15.10
2018-07-07T04:07:53.323Z,15.10
2018-07-07T04:10:21.892Z,15.10
2018-07-07T04:12:50.412Z,15.10
2018-07-07T04:15:19.074Z,15.10
2018-07-07T04:20:17.073Z,15.20
2018-07-07T04:22:45.542Z,15.30
2018-07-07T04:41:25.798Z,15.30
2018-07-07T04:43:54.286Z,15.40
2018-07-07T04:46:23.420Z,15.60
2018-07-07T04:48:51.930Z,15.70
2018-07-07T04:51:20.433Z,15.70
2018-07-07T04:53:49.864Z,15.90
2018-07-07T04:56:18.533Z,16.10
2018-07-07T05:07:21.922Z,16.30
2018-07-07T05:09:50.405Z,16.50
2018-07-07T05:12:18.993Z,17.10
2018-07-07T05:14:47.495Z,17.30
2018-07-07T05:17:17.504Z,17.40
2018-07-07T05:19:45.970Z,17.50
2018-07-07T05:34:12.707Z,18.10
2018-07-07T05:36:41.359Z,18.30
2018-07-07T05:39:10.079Z,18.30
2018-07-07T05:41:38.706Z,18.70
2018-07-07T05:44:07.401Z,19.00
2018-07-07T05:46:36.134Z,19.30
2018-07-07T05:49:04.736Z,19.70
2018-07-07T05:51:33.238Z,20.30
2018-07-07T05:54:01.811Z,20.80
2018-07-07T05:56:30.325Z,21.30
2018-07-07T05:58:58.873Z,21.40
2018-07-07T06:01:28.039Z,21.60
2018-07-07T06:03:56.683Z,21.80
2018-07-07T06:06:25.293Z,22.80
2018-07-07T06:08:53.842Z,23.30
2018-07-07T06:11:22.310Z,23.90
2018-07-07T06:13:50.890Z,25.00
2018-07-07T06:16:20.134Z,25.30
2018-07-07T06:18:48.684Z,25.90
2018-07-07T06:21:18.330Z,27.00
2018-07-07T06:23:46.980Z,27.70
2018-07-07T06:34:15.943Z,28.20
2018-07-07T06:36:44.640Z,24.30
2018-07-07T06:39:13.203Z,23.90
2018-07-07T06:41:41.733Z,24.00
2018-07-07T06:44:16.746Z,24.10
2018-07-07T06:46:45.351Z,25.00
2018-07-07T06:57:46.822Z,26.10
2018-07-07T07:00:16.711Z,26.70
2018-07-07T07:02:45.228Z,29.00
2018-07-07T07:05:15.059Z,28.50
2018-07-07T07:07:43.571Z,27.50
2018-07-07T07:12:40.319Z,26.40
2018-07-07T07:15:08.892Z,27.20
2018-07-07T07:17:37.499Z,27.50
2018-07-07T07:20:06.187Z,28.00
2018-07-07T07:22:34.762Z,28.90
2018-07-07T07:25:03.283Z,29.80
2018-07-07T07:27:31.860Z,30.40
2018-07-07T07:30:00.342Z,30.00
2018-07-07T07:32:28.984Z,30.60
2018-07-07T07:34:57.892Z,31.10
2018-07-07T07:37:26.402Z,30.50
2018-07-07T07:39:54.932Z,30.80
2018-07-07T07:42:23.525Z,31.90
2018-07-07T07:44:52.157Z,34.00
2018-07-07T07:47:21.159Z,34.60
2018-07-07T07:49:49.650Z,34.70
2018-07-07T07:52:18.152Z,34.30
2018-07-07T07:54:46.678Z,34.00
2018-07-07T08:03:21.035Z,34.70
2018-07-07T08:05:52.235Z,33.80
2018-07-07T08:08:20.775Z,32.80
2018-07-07T08:10:49.815Z,32.00
2018-07-07T08:13:18.454Z,33.30
2018-07-07T08:15:46.984Z,33.50
2018-07-07T08:28:24.576Z,35.00
2018-07-07T08:30:53.234Z,35.60
2018-07-07T08:33:21.818Z,38.90
2018-07-07T08:35:50.866Z,39.40
2018-07-07T08:38:19.402Z,40.60
2018-07-07T08:40:47.921Z,40.90
2018-07-07T08:43:18.999Z,40.90
2018-07-07T08:45:47.610Z,41.70
2018-07-07T08:58:40.075Z,41.60
2018-07-07T09:01:08.659Z,42.40
2018-07-07T09:03:39.183Z,45.30
2018-07-07T09:06:07.727Z,45.50
2018-07-07T09:08:36.975Z,45.50
2018-07-07T09:11:06.230Z,42.90
2018-07-07T09:13:37.129Z,41.40
2018-07-07T09:16:06.307Z,39.40
2018-07-07T09:18:34.847Z,39.30
2018-07-07T09:21:03.592Z,40.20
2018-07-07T09:23:32.666Z,39.80
2018-07-07T09:26:01.330Z,40.90
2018-07-07T09:28:30.352Z,41.20
2018-07-07T09:30:59.963Z,42.30
2018-07-07T09:33:28.614Z,41.00
2018-07-07T09:35:57.793Z,41.00
2018-07-07T09:38:26.618Z,39.70
2018-07-07T09:40:55.151Z,37.90
2018-07-07T09:43:24.471Z,37.20
2018-07-07T09:45:53.329Z,36.70
2018-07-07T09:48:21.947Z,38.70
2018-07-07T09:50:51.793Z,38.90
2018-07-07T09:53:20.678Z,36.50
2018-07-07T09:55:50.121Z,36.50
2018-07-07T09:58:18.957Z,37.20
2018-07-07T10:00:48.454Z,38.00
2018-07-07T10:03:17.396Z,37.70
2018-07-07T10:05:47.800Z,36.60
2018-07-07T10:08:17.434Z,34.50
2018-07-07T10:10:46.322Z,32.10
2018-07-07T10:21:49.034Z,31.30
2018-07-07T10:24:17.527Z,31.50
2018-07-07T10:26:46.458Z,30.90
2018-07-07T10:41:24.788Z,30.50
2018-07-07T10:43:53.720Z,30.10
2018-07-07T10:46:22.241Z,28.10
2018-07-07T10:48:51.038Z,28.00
2018-07-07T10:51:19.511Z,28.00
2018-07-07T10:53:48.146Z,27.90
2018-07-07T10:56:17.423Z,27.70
2018-07-07T10:58:45.949Z,27.60
2018-07-07T11:11:42.310Z,27.60
2018-07-07T11:16:39.054Z,27.50
2018-07-07T11:19:07.597Z,27.80
2018-07-07T11:21:36.168Z,27.90
2018-07-07T11:24:04.715Z,27.90
2018-07-07T11:26:33.458Z,28.00
2018-07-07T11:29:01.986Z,28.00
2018-07-07T11:31:30.551Z,28.00
2018-07-07T11:33:59.536Z,27.80
2018-07-07T11:36:28.160Z,27.60
2018-07-07T11:38:56.625Z,27.40
2018-07-07T11:41:25.203Z,27.40
2018-07-07T11:46:23.197Z,27.70
2018-07-07T11:48:51.924Z,27.80
2018-07-07T11:51:20.920Z,27.70
2018-07-07T11:53:49.468Z,27.80
2018-07-07T11:58:46.288Z,27.70
2018-07-07T12:07:15.066Z,27.70
2018-07-07T12:09:43.624Z,27.90
2018-07-07T12:12:12.177Z,27.50
2018-07-07T12:14:41.000Z,27.60
2018-07-07T12:17:09.542Z,27.80
2018-07-07T12:19:38.100Z,28.00
2018-07-07T12:22:06.615Z,28.00
2018-07-07T12:24:35.102Z,27.80
2018-07-07T12:27:03.673Z,27.50
2018-07-07T12:29:32.214Z,27.40
2018-07-07T12:32:00.813Z,27.50
2018-07-07T12:34:29.287Z,27.60
2018-07-07T12:36:58.387Z,27.70
2018-07-07T12:39:26.863Z,27.60
2018-07-07T12:41:55.378Z,27.60
2018-07-07T12:44:24.311Z,27.50
2018-07-07T12:46:52.902Z,27.70
2018-07-07T12:49:21.398Z,27.60
2018-07-07T12:51:49.907Z,27.70
2018-07-07T12:54:18.374Z,28.00
2018-07-07T12:56:47.212Z,28.00
2018-07-07T12:59:17.414Z,28.00
2018-07-07T13:01:46.005Z,28.00
2018-07-07T13:12:56.285Z,28.10
2018-07-07T13:15:25.024Z,28.20
2018-07-07T13:17:53.649Z,27.40
2018-07-07T13:20:22.651Z,27.50
2018-07-07T13:22:51.418Z,27.70
2018-07-07T13:25:19.959Z,27.80
2018-07-07T13:27:48.468Z,27.90
2018-07-07T13:30:17.637Z,28.10
2018-07-07T13:32:46.119Z,28.40
2018-07-07T13:52:49.684Z,28.60
2018-07-07T13:55:19.272Z,28.60
2018-07-07T13:57:47.880Z,27.50
2018-07-07T14:08:16.617Z,27.40
2018-07-07T14:10:45.773Z,27.50
2018-07-07T14:23:22.859Z,27.90
2018-07-07T14:25:51.586Z,27.90
2018-07-07T14:28:20.183Z,28.40
2018-07-07T14:30:48.743Z,28.50
2018-07-07T14:33:17.560Z,28.60
2018-07-07T14:35:46.072Z,28.60
2018-07-07T14:55:26.191Z,28.60
2018-07-07T14:57:54.804Z,27.70
2018-07-07T15:00:26.508Z,27.90
2018-07-07T15:02:57.322Z,27.90
2018-07-07T15:05:26.175Z,27.90
2018-07-07T15:07:54.707Z,28.00
2018-07-07T15:10:23.222Z,27.90
2018-07-07T15:12:51.711Z,28.00
2018-07-07T15:15:20.229Z,28.10
2018-07-07T15:17:48.796Z,28.30
2018-07-07T15:20:17.599Z,28.30
2018-07-07T15:22:46.167Z,28.30
2018-07-07T15:44:00.403Z,28.40
2018-07-07T15:46:28.927Z,27.50
2018-07-07T15:48:57.494Z,27.60
2018-07-07T15:51:26.477Z,27.50
2018-07-07T15:53:54.942Z,27.50
2018-07-07T15:56:24.044Z,27.40
2018-07-07T15:58:52.735Z,27.40
2018-07-07T16:01:22.475Z,27.50
2018-07-07T16:03:51.008Z,27.40
2018-07-07T16:06:19.618Z,27.40
2018-07-07T16:08:48.417Z,27.50
2018-07-07T16:11:17.607Z,27.60
2018-07-07T16:13:46.928Z,27.70
2018-07-07T16:22:36.001Z,27.60
2018-07-07T16:25:04.635Z,27.70
2018-07-07T16:27:33.131Z,27.40
2018-07-07T16:30:01.618Z,27.30
2018-07-07T16:32:30.133Z,27.40
2018-07-07T16:34:58.718Z,27.60
2018-07-07T16:37:27.262Z,27.60
2018-07-07T16:39:55.788Z,27.60
2018-07-07T16:42:24.659Z,27.60
2018-07-07T16:47:21.719Z,27.70
2018-07-07T16:49:50.255Z,27.70
2018-07-07T16:52:18.867Z,27.60
2018-07-07T16:54:47.431Z,27.50
2018-07-07T16:57:17.783Z,27.40
2018-07-07T17:04:14.602Z,27.30
2018-07-07T17:06:43.774Z,27.30
2018-07-07T17:09:12.406Z,27.00
2018-07-07T17:11:41.013Z,26.90
2018-07-07T17:14:09.841Z,26.80
2018-07-07T17:16:40.383Z,26.70
2018-07-07T17:19:08.954Z,26.60
2018-07-07T17:21:37.698Z,26.60
2018-07-07T17:24:06.196Z,26.50
2018-07-07T17:26:34.730Z,26.40
2018-07-07T17:29:03.572Z,26.20
2018-07-07T17:31:37.345Z,26.00
2018-07-07T17:34:05.934Z,26.10
2018-07-07T17:36:34.494Z,26.10
2018-07-07T17:39:03.453Z,26.10
2018-07-07T17:41:32.987Z,25.90
2018-07-07T17:44:01.503Z,25.90
2018-07-07T17:46:30.014Z,25.90
2018-07-07T17:48:59.178Z,25.80
2018-07-07T17:51:28.199Z,25.80
2018-07-07T17:53:57.528Z,25.80
2018-07-07T17:56:26.557Z,25.80
2018-07-07T17:58:55.699Z,25.60
2018-07-07T18:01:24.238Z,25.70
2018-07-07T18:03:53.474Z,25.70
2018-07-07T18:06:21.962Z,25.60
2018-07-07T18:08:50.424Z,25.50
2018-07-07T18:11:18.996Z,25.40
2018-07-07T18:13:47.528Z,25.30
2018-07-07T18:25:39.756Z,25.10
2018-07-07T18:28:08.378Z,25.00
2018-07-07T18:30:36.848Z,24.60
2018-07-07T18:33:05.481Z,24.50
2018-07-07T18:35:33.960Z,24.40
2018-07-07T18:38:02.490Z,24.30
2018-07-07T18:40:31.017Z,24.30
2018-07-07T18:42:59.516Z,24.30
2018-07-07T18:45:28.142Z,24.30
2018-07-07T18:47:56.700Z,24.20
2018-07-07T18:50:25.239Z,24.00
2018-07-07T18:52:53.807Z,23.90
2018-07-07T18:55:22.926Z,23.90
2018-07-07T18:57:51.451Z,23.80
2018-07-07T19:00:20.254Z,23.80
2018-07-07T19:02:49.454Z,23.80
2018-07-07T19:05:18.066Z,23.80
2018-07-07T19:07:46.663Z,23.70
2018-07-07T19:21:11.578Z,23.60
2018-07-07T19:25:47.077Z,23.50
2018-07-07T19:28:17.435Z,22.80
2018-07-07T19:30:45.981Z,22.70
2018-07-07T19:51:22.775Z,22.60
2018-07-07T19:53:51.514Z,22.50
2018-07-07T19:56:20.064Z,21.70
2018-07-07T19:58:49.036Z,21.70
2018-07-07T20:01:18.344Z,21.60
2018-07-07T20:03:46.865Z,21.60
2018-07-07T20:16:44.671Z,21.50
2018-07-07T20:19:19.820Z,21.50
2018-07-07T20:21:50.450Z,21.20
2018-07-07T20:24:24.905Z,21.10
2018-07-07T20:26:58.562Z,21.10
2018-07-07T20:29:27.093Z,21.00
2018-07-07T20:31:55.603Z,21.00
2018-07-07T20:34:28.471Z,20.90
2018-07-07T20:36:57.760Z,20.80
2018-07-07T20:39:26.583Z,20.80
2018-07-07T20:41:55.808Z,20.70
2018-07-07T20:44:24.289Z,20.70
2018-07-07T20:49:20.959Z,20.70
2018-07-07T20:51:49.547Z,20.60
2018-07-07T20:54:18.064Z,20.60
2018-07-07T20:56:46.845Z,20.50
2018-07-07T21:06:59.915Z,20.40
2018-07-07T21:09:28.626Z,20.30
2018-07-07T21:11:57.090Z,20.10
2018-07-07T21:14:25.792Z,20.00
2018-07-07T21:16:54.441Z,20.00
2018-07-07T21:19:23.174Z,20.00
2018-07-07T21:21:51.912Z,19.90
2018-07-07T21:24:21.026Z,19.90
2018-07-07T21:26:49.775Z,19.90
2018-07-07T21:29:18.334Z,19.90
2018-07-07T21:31:46.836Z,19.80
2018-07-07T21:42:19.855Z,19.80
2018-07-07T21:44:48.374Z,19.80
2018-07-07T21:47:17.412Z,19.40
2018-07-07T21:49:45.916Z,19.30
2018-07-07T22:02:00.987Z,19.30
2018-07-07T22:16:44.858Z,18.70
2018-07-07T22:19:13.365Z,18.60
2018-07-07T22:21:53.820Z,18.60
2018-07-07T22:24:22.350Z,18.70
2018-07-07T22:26:53.925Z,18.70
2018-07-07T22:31:50.658Z,18.70
2018-07-07T22:34:19.211Z,18.70
2018-07-07T22:36:47.729Z,18.70
2018-07-07T22:45:15.748Z,18.70
2018-07-07T22:47:44.328Z,18.70
2018-07-07T22:50:12.852Z,18.50
2018-07-07T22:52:41.400Z,18.60
2018-07-07T22:55:09.888Z,18.60
2018-07-07T22:57:38.546Z,18.50
2018-07-07T23:00:07.196Z,18.50
2018-07-07T23:02:35.755Z,18.40
2018-07-07T23:07:32.470Z,18.40
2018-07-07T23:10:00.964Z,18.30
2018-07-07T23:12:29.442Z,18.30
2018-07-07T23:14:58.463Z,18.40
2018-07-07T23:17:26.919Z,18.30
2018-07-07T23:19:55.419Z,18.30
2018-07-07T23:22:33.750Z,18.20
2018-07-07T23:25:02.218Z,18.30
2018-07-07T23:29:58.917Z,18.20
2018-07-07T23:32:27.490Z,18.10
2018-07-07T23:34:55.984Z,18.20
2018-07-07T23:37:24.542Z,18.20
2018-07-07T23:39:53.695Z,18.20
2018-07-07T23:42:22.267Z,18.10
2018-07-07T23:44:51.270Z,18.10
2018-07-07T23:47:20.738Z,18.00
2018-07-07T23:49:49.218Z,17.90
2018-07-07T23:52:17.752Z,18.00
